createdAt,value
2019-04-03T00:00:13.702Z,96658.50
2019-04-03T00:02:40.174Z,96653.36
2019-04-03T00:05:06.453Z,96660.40
2019-04-03T00:07:33.763Z,96659.20
2019-04-03T00:10:06.632Z,96652.55
2019-04-03T00:12:33.739Z,96641.39
2019-04-03T00:15:00.424Z,96640.63
2019-04-03T00:17:26.801Z,96650.48
2019-04-03T00:19:53.353Z,96645.63
2019-04-03T00:22:21.498Z,96637.91
2019-04-03T00:24:48.142Z,96644.80
2019-04-03T00:27:14.515Z,96639.95
2019-04-03T00:29:41.037Z,96645.13
2019-04-03T00:32:07.526Z,96638.23
2019-04-03T00:34:33.839Z,96634.97
2019-04-03T00:37:00.717Z,96633.97
2019-04-03T00:39:27.276Z,96632.61
2019-04-03T00:41:54.630Z,96630.58
2019-04-03T00:44:23.983Z,96627.64
2019-04-03T00:46:49.849Z,96632.37
2019-04-03T00:49:16.411Z,96629.84
2019-04-03T00:51:42.784Z,96623.84
2019-04-03T00:54:09.263Z,96620.22
2019-04-03T00:56:35.888Z,96618.72
2019-04-03T00:59:02.419Z,96619.60
2019-04-03T01:01:28.779Z,96620.16
2019-04-03T01:03:55.267Z,96616.66
2019-04-03T01:06:21.860Z,96610.69
2019-04-03T01:08:48.475Z,96615.45
2019-04-03T01:11:14.980Z,96615.66
2019-04-03T01:13:41.581Z,96608.03
2019-04-03T01:16:08.050Z,96612.73
2019-04-03T01:18:35.360Z,96605.39
2019-04-03T01:21:02.451Z,96607.02
2019-04-03T01:23:28.889Z,96604.04
2019-04-03T01:25:55.360Z,96602.64
2019-04-03T01:28:22.162Z,96598.55
2019-04-03T01:30:48.821Z,96592.42
2019-04-03T01:33:16.481Z,96590.39
2019-04-03T01:35:43.603Z,96583.62
2019-04-03T01:38:10.069Z,96591.39
2019-04-03T01:40:36.691Z,96587.89
2019-04-03T01:43:03.448Z,96592.05
2019-04-03T01:45:29.974Z,96591.58
2019-04-03T01:47:58.199Z,96587.05
2019-04-03T01:50:26.805Z,96584.45
2019-04-03T01:52:53.936Z,96585.57
2019-04-03T01:55:20.420Z,96587.24
2019-04-03T01:57:47.210Z,96581.28
2019-04-03T02:00:14.019Z,96580.40
2019-04-03T02:02:40.735Z,96585.61
2019-04-03T02:05:07.650Z,96573.36
2019-04-03T02:07:34.319Z,96572.80
2019-04-03T02:10:00.906Z,96572.56
2019-04-03T02:12:27.702Z,96573.68
2019-04-03T02:14:54.219Z,96573.68
2019-04-03T02:17:21.829Z,96574.48
2019-04-03T02:19:49.025Z,96566.36
2019-04-03T02:22:15.645Z,96566.45
2019-04-03T02:24:42.135Z,96568.31
2019-04-03T02:27:08.668Z,96567.52
2019-04-03T02:29:35.339Z,96560.84
2019-04-03T02:32:01.914Z,96557.58
2019-04-03T02:34:28.212Z,96552.41
2019-04-03T02:36:54.744Z,96554.23
2019-04-03T02:39:21.105Z,96549.75
2019-04-03T02:41:47.733Z,96547.28
2019-04-03T02:44:14.180Z,96547.95
2019-04-03T02:46:40.880Z,96538.97
2019-04-03T02:49:10.331Z,96538.66
2019-04-03T02:51:35.478Z,96536.06
2019-04-03T02:54:03.110Z,96528.19
2019-04-03T02:56:30.090Z,96530.22
2019-04-03T02:58:56.506Z,96528.23
2019-04-03T03:01:22.981Z,96524.68
2019-04-03T03:03:50.205Z,96524.80
2019-04-03T03:06:17.450Z,96528.55
2019-04-03T03:08:44.301Z,96526.48
2019-04-03T03:11:10.984Z,96520.13
2019-04-03T03:13:37.431Z,96520.52
2019-04-03T03:16:04.171Z,96521.98
2019-04-03T03:18:31.212Z,96513.08
2019-04-03T03:21:00.325Z,96520.88
2019-04-03T03:23:27.135Z,96513.96
2019-04-03T03:25:55.432Z,96526.13
2019-04-03T03:28:22.109Z,96521.43
2019-04-03T03:30:57.840Z,96514.00
2019-04-03T03:33:30.928Z,96514.23
2019-04-03T03:35:48.960Z,96518.53
2019-04-03T03:38:15.797Z,96507.95
2019-04-03T03:40:42.985Z,96499.05
2019-04-03T03:43:09.666Z,96507.95
2019-04-03T03:45:37.050Z,96508.45
2019-04-03T03:48:08.722Z,96505.17
2019-04-03T03:50:35.123Z,96507.31
2019-04-03T03:53:01.810Z,96504.95
2019-04-03T03:55:29.218Z,96503.10
2019-04-03T03:57:56.609Z,96505.02
2019-04-03T04:00:24.250Z,96500.25
2019-04-03T04:02:52.224Z,96499.69
2019-04-03T04:05:21.437Z,96489.85
2019-04-03T04:07:47.939Z,96494.52
2019-04-03T04:10:14.932Z,96493.20
2019-04-03T04:12:42.634Z,96492.48
2019-04-03T04:15:09.751Z,96481.94
2019-04-03T04:17:36.472Z,96482.52
2019-04-03T04:20:06.254Z,96481.91
2019-04-03T04:22:33.861Z,96475.72
2019-04-03T04:25:02.477Z,96478.67
2019-04-03T04:27:28.888Z,96479.09
2019-04-03T04:29:56.007Z,96476.70
2019-04-03T04:32:22.323Z,96485.30
2019-04-03T04:34:50.204Z,96479.91
2019-04-03T04:37:17.295Z,96478.94
2019-04-03T04:39:43.662Z,96475.79
2019-04-03T04:42:10.185Z,96472.61
2019-04-03T04:44:37.070Z,96479.35
2019-04-03T04:47:03.632Z,96478.55
2019-04-03T04:49:30.034Z,96477.68
2019-04-03T04:51:57.051Z,96472.72
2019-04-03T04:54:24.023Z,96471.59
2019-04-03T04:56:50.431Z,96473.06
2019-04-03T04:59:16.910Z,96471.05
2019-04-03T05:01:43.399Z,96476.17
2019-04-03T05:04:09.812Z,96471.58
2019-04-03T05:06:36.768Z,96475.00
2019-04-03T05:09:05.339Z,96469.83
2019-04-03T05:11:31.997Z,96467.94
2019-04-03T05:13:58.491Z,96467.35
2019-04-03T05:16:25.621Z,96462.23
2019-04-03T05:18:52.644Z,96464.23
2019-04-03T05:21:20.918Z,96460.55
2019-04-03T05:23:47.883Z,96453.38
2019-04-03T05:26:14.304Z,96459.74
2019-04-03T05:28:53.308Z,96455.23
2019-04-03T05:31:09.174Z,96455.25
2019-04-03T05:33:35.758Z,96454.84
2019-04-03T05:36:02.375Z,96455.45
2019-04-03T05:38:28.951Z,96450.38
2019-04-03T05:40:56.481Z,96449.05
2019-04-03T05:43:23.673Z,96431.18
2019-04-03T05:45:50.182Z,96431.18
2019-04-03T05:48:18.573Z,96450.55
2019-04-03T05:50:45.254Z,96449.98
2019-04-03T05:53:12.282Z,96445.46
2019-04-03T05:55:40.402Z,96448.63
2019-04-03T05:58:07.367Z,96440.70
2019-04-03T06:00:33.946Z,96451.27
2019-04-03T06:03:00.326Z,96446.12
2019-04-03T06:05:26.818Z,96451.70
2019-04-03T06:07:53.223Z,96447.76
2019-04-03T06:10:19.904Z,96450.10
2019-04-03T06:12:46.688Z,96442.48
2019-04-03T06:15:15.256Z,96437.56
2019-04-03T06:17:41.750Z,96445.28
2019-04-03T06:20:11.224Z,96441.23
2019-04-03T06:22:37.394Z,96427.89
2019-04-03T06:25:05.751Z,96433.03
2019-04-03T06:27:32.300Z,96432.34
2019-04-03T06:29:58.675Z,96429.26
2019-04-03T06:32:25.190Z,96428.33
2019-04-03T06:34:51.667Z,96424.23
2019-04-03T06:37:18.101Z,96416.42
2019-04-03T06:39:44.734Z,96423.58
2019-04-03T06:42:13.044Z,96423.00
2019-04-03T06:44:39.575Z,96416.96
2019-04-03T06:47:05.967Z,96412.29
2019-04-03T06:49:32.419Z,96413.84
2019-04-03T06:51:59.008Z,96408.95
2019-04-03T06:54:25.381Z,96411.36
2019-04-03T06:56:52.925Z,96402.70
2019-04-03T06:59:19.583Z,96412.11
2019-04-03T07:01:46.190Z,96407.70
2019-04-03T07:04:12.678Z,96409.03
2019-04-03T07:06:39.703Z,96409.13
2019-04-03T07:09:06.878Z,96399.33
2019-04-03T07:11:33.289Z,96403.88
2019-04-03T07:14:00.030Z,96399.10
2019-04-03T07:16:28.566Z,96396.05
2019-04-03T07:18:55.114Z,96393.83
2019-04-03T07:21:22.751Z,96398.88
2019-04-03T07:23:50.105Z,96398.84
2019-04-03T07:26:16.700Z,96392.52
2019-04-03T07:28:43.074Z,96395.94
2019-04-03T07:31:09.694Z,96392.61
2019-04-03T07:33:36.163Z,96400.47
2019-04-03T07:36:03.172Z,96385.25
2019-04-03T07:38:29.668Z,96402.84
2019-04-03T07:40:56.227Z,96393.92
2019-04-03T07:43:22.674Z,96385.84
2019-04-03T07:45:49.311Z,96391.00
2019-04-03T07:48:16.143Z,96384.55
2019-04-03T07:50:43.059Z,96383.58
2019-04-03T07:53:09.524Z,96390.13
2019-04-03T07:55:36.070Z,96396.30
2019-04-03T07:58:02.809Z,96392.59
2019-04-03T08:00:29.614Z,96391.87
2019-04-03T08:02:56.392Z,96391.71
2019-04-03T08:05:23.038Z,96385.84
2019-04-03T08:07:49.646Z,96393.28
2019-04-03T08:10:16.508Z,96385.02
2019-04-03T08:12:42.987Z,96388.91
2019-04-03T08:15:12.644Z,96386.75
2019-04-03T08:17:38.063Z,96383.26
2019-04-03T08:20:07.603Z,96388.75
2019-04-03T08:22:34.100Z,96371.69
2019-04-03T08:25:01.024Z,96376.19
2019-04-03T08:27:27.886Z,96377.38
2019-04-03T08:29:54.581Z,96367.00
2019-04-03T08:32:21.267Z,96370.91
2019-04-03T08:34:47.650Z,96377.03
2019-04-03T08:37:14.077Z,96362.91
2019-04-03T08:39:40.879Z,96374.66
2019-04-03T08:42:07.816Z,96367.57
2019-04-03T08:44:35.719Z,96367.14
2019-04-03T08:47:03.296Z,96368.48
2019-04-03T08:49:30.483Z,96373.89
2019-04-03T08:51:57.201Z,96359.01
2019-04-03T08:54:23.899Z,96365.95
2019-04-03T08:56:50.387Z,96360.31
2019-04-03T08:59:17.162Z,96371.31
2019-04-03T09:01:43.703Z,96369.57
2019-04-03T09:04:10.398Z,96349.97
2019-04-03T09:06:37.433Z,96357.50
2019-04-03T09:09:08.793Z,96355.29
2019-04-03T09:11:36.274Z,96360.53
2019-04-03T09:14:03.916Z,96359.74
2019-04-03T09:16:31.700Z,96351.34
2019-04-03T09:18:59.037Z,96341.98
2019-04-03T09:21:25.582Z,96347.20
2019-04-03T09:23:52.445Z,96344.13
2019-04-03T09:26:18.955Z,96336.89
2019-04-03T09:28:45.599Z,96338.34
2019-04-03T09:31:12.314Z,96330.50
2019-04-03T09:33:38.684Z,96343.20
2019-04-03T09:36:05.265Z,96328.86
2019-04-03T09:38:31.904Z,96327.39
2019-04-03T09:40:58.808Z,96333.65
2019-04-03T09:43:25.247Z,96333.94
2019-04-03T09:45:52.049Z,96340.61
2019-04-03T09:48:18.601Z,96319.56
2019-04-03T09:50:46.360Z,96320.73
2019-04-03T09:53:13.772Z,96318.53
2019-04-03T09:55:40.196Z,96306.22
2019-04-03T09:58:06.866Z,96320.92
2019-04-03T10:00:33.646Z,96302.15
2019-04-03T10:03:00.324Z,96316.08
2019-04-03T10:05:28.989Z,96310.63
2019-04-03T10:07:55.167Z,96302.63
2019-04-03T10:10:25.492Z,96300.65
2019-04-03T10:12:53.619Z,96307.97
2019-04-03T10:15:19.534Z,96296.59
2019-04-03T10:17:46.551Z,96305.14
2019-04-03T10:20:16.493Z,96298.49
2019-04-03T10:22:42.943Z,96304.87
2019-04-03T10:25:10.408Z,96302.55
2019-04-03T10:27:37.034Z,96299.08
2019-04-03T10:30:10.665Z,96289.09
2019-04-03T10:32:37.756Z,96282.99
2019-04-03T10:35:07.360Z,96272.59
2019-04-03T10:37:34.966Z,96278.73
2019-04-03T10:40:02.451Z,96273.02
2019-04-03T10:42:31.159Z,96270.52
2019-04-03T10:44:57.790Z,96277.42
2019-04-03T10:47:30.169Z,96265.44
2019-04-03T10:49:52.738Z,96271.08
2019-04-03T10:52:19.396Z,96265.78
2019-04-03T10:54:46.798Z,96269.70
2019-04-03T10:57:14.051Z,96276.59
2019-04-03T10:59:40.707Z,96256.59
2019-04-03T11:02:07.476Z,96257.06
2019-04-03T11:04:34.023Z,96256.33
2019-04-03T11:07:00.693Z,96253.30
2019-04-03T11:09:27.286Z,96251.25
2019-04-03T11:11:54.308Z,96249.78
2019-04-03T11:14:21.004Z,96255.11
2019-04-03T11:16:47.417Z,96242.34
2019-04-03T11:19:13.833Z,96244.51
2019-04-03T11:21:43.338Z,96239.55
2019-04-03T11:24:09.112Z,96239.27
2019-04-03T11:26:36.101Z,96239.00
2019-04-03T11:29:03.004Z,96231.25
2019-04-03T11:31:32.872Z,96237.70
2019-04-03T11:33:58.377Z,96236.48
2019-04-03T11:36:29.422Z,96239.23
2019-04-03T11:38:53.508Z,96232.97
2019-04-03T11:41:22.948Z,96225.44
2019-04-03T11:43:48.765Z,96218.31
2019-04-03T11:46:15.514Z,96228.64
2019-04-03T11:48:43.412Z,96217.67
2019-04-03T11:51:10.890Z,96218.41
2019-04-03T11:53:37.458Z,96224.64
2019-04-03T11:56:04.264Z,96217.19
2019-04-03T11:58:30.952Z,96211.14
2019-04-03T12:00:57.722Z,96206.81
2019-04-03T12:03:24.243Z,96203.23
2019-04-03T12:05:51.427Z,96200.76
2019-04-03T12:08:17.988Z,96203.36
2019-04-03T12:10:44.664Z,96205.91
2019-04-03T12:13:14.021Z,96186.22
2019-04-03T12:15:40.092Z,96191.84
2019-04-03T12:18:06.653Z,96192.89
2019-04-03T12:20:33.138Z,96184.28
2019-04-03T12:22:59.686Z,96184.65
2019-04-03T12:25:26.379Z,96177.09
2019-04-03T12:27:53.026Z,96172.44
2019-04-03T12:30:19.843Z,96174.05
2019-04-03T12:32:48.928Z,96176.84
2019-04-03T12:35:15.087Z,96166.66
2019-04-03T12:37:41.894Z,96161.27
2019-04-03T12:40:10.392Z,96171.42
2019-04-03T12:42:36.888Z,96172.45
2019-04-03T12:45:06.234Z,96167.34
2019-04-03T12:47:32.747Z,96167.84
2019-04-03T12:49:59.810Z,96165.23
2019-04-03T12:52:26.524Z,96165.34
2019-04-03T12:54:54.291Z,96175.00
2019-04-03T12:57:21.209Z,96160.99
2019-04-03T12:59:48.175Z,96170.47
2019-04-03T13:02:14.904Z,96168.52
2019-04-03T13:04:41.613Z,96161.60
2019-04-03T13:07:08.773Z,96158.69
2019-04-03T13:09:37.969Z,96156.16
2019-04-03T13:12:04.872Z,96161.33
2019-04-03T13:14:32.698Z,96157.53
2019-04-03T13:16:59.794Z,96160.48
2019-04-03T13:19:26.564Z,96153.96
2019-04-03T13:21:53.203Z,96152.95
2019-04-03T13:24:20.248Z,96154.08
2019-04-03T13:26:47.164Z,96152.07
2019-04-03T13:29:14.186Z,96144.09
2019-04-03T13:31:40.811Z,96152.41
2019-04-03T13:34:09.760Z,96148.31
2019-04-03T13:36:36.663Z,96147.47
2019-04-03T13:39:05.767Z,96147.77
2019-04-03T13:41:34.092Z,96143.11
2019-04-03T13:44:00.454Z,96142.38
2019-04-03T13:46:27.082Z,96140.34
2019-04-03T13:48:53.710Z,96137.47
2019-04-03T13:51:20.283Z,96136.65
2019-04-03T13:53:47.198Z,96129.37
2019-04-03T13:56:13.682Z,96141.53
2019-04-03T13:58:40.548Z,96142.70
2019-04-03T14:01:09.372Z,96140.75
2019-04-03T14:03:35.504Z,96143.92
2019-04-03T14:06:04.148Z,96153.13
2019-04-03T14:08:30.955Z,96148.16
2019-04-03T14:10:58.767Z,96152.95
2019-04-03T14:13:25.529Z,96149.48
2019-04-03T14:15:54.753Z,96161.31
2019-04-03T14:18:20.430Z,96154.30
2019-04-03T14:20:50.138Z,96165.41
2019-04-03T14:23:15.476Z,96156.30
2019-04-03T14:25:42.095Z,96148.53
2019-04-03T14:28:09.132Z,96142.17
2019-04-03T14:30:36.016Z,96146.56
2019-04-03T14:33:02.987Z,96145.41
2019-04-03T14:37:59.443Z,96142.11
2019-04-03T14:40:26.132Z,96143.11
2019-04-03T14:42:52.932Z,96143.70
2019-04-03T14:45:19.306Z,96144.92
2019-04-03T14:47:46.380Z,96138.30
2019-04-03T14:50:13.828Z,96133.41
2019-04-03T14:52:40.278Z,96131.84
2019-04-03T14:55:17.690Z,96131.42
2019-04-03T14:57:35.941Z,96129.89
2019-04-03T15:00:23.350Z,96126.95
2019-04-03T15:02:34.835Z,96121.25
2019-04-03T15:05:01.712Z,96117.31
2019-04-03T15:07:28.305Z,96129.10
2019-04-03T15:09:54.916Z,96124.20
2019-04-03T15:12:21.430Z,96114.37
2019-04-03T15:14:48.169Z,96114.19
2019-04-03T15:21:37.776Z,96113.25
2019-04-03T15:24:04.277Z,96113.12
2019-04-03T15:26:30.807Z,96105.66
2019-04-03T15:28:57.180Z,96107.67
2019-04-03T15:31:24.621Z,96107.49
2019-04-03T15:33:51.151Z,96097.72
2019-04-03T15:36:17.600Z,96103.23
2019-04-03T15:38:45.663Z,96104.80
2019-04-03T15:41:12.546Z,96094.43
2019-04-03T15:43:38.863Z,96097.58
2019-04-03T15:46:06.463Z,96101.11
2019-04-03T15:48:33.405Z,96091.69
2019-04-03T15:51:00.363Z,96093.45
2019-04-03T15:53:27.152Z,96089.33
2019-04-03T15:55:54.443Z,96083.84
2019-04-03T15:58:22.843Z,96084.19
2019-04-03T16:00:49.751Z,96085.40
2019-04-03T16:03:17.542Z,96081.44
2019-04-03T16:05:44.839Z,96088.94
2019-04-03T16:08:12.900Z,96095.42
2019-04-03T16:10:40.627Z,96086.00
2019-04-03T16:13:07.603Z,96082.52
2019-04-03T16:15:33.980Z,96081.78
2019-04-03T16:18:01.160Z,96071.83
2019-04-03T16:20:27.923Z,96074.63
2019-04-03T16:22:54.854Z,96072.91
2019-04-03T16:25:21.379Z,96076.28
2019-04-03T16:27:48.735Z,96071.41
2019-04-03T16:30:17.302Z,96076.55
2019-04-03T16:32:44.618Z,96088.31
2019-04-03T16:35:14.565Z,96067.92
2019-04-03T16:37:41.576Z,96080.90
2019-04-03T16:40:09.102Z,96072.50
2019-04-03T16:42:35.941Z,96072.69
2019-04-03T16:45:08.494Z,96074.66
2019-04-03T16:47:35.412Z,96071.94
2019-04-03T16:50:04.184Z,96073.70
2019-04-03T16:52:30.480Z,96070.20
2019-04-03T16:54:57.420Z,96066.87
2019-04-03T16:57:24.003Z,96073.33
2019-04-03T16:59:50.523Z,96074.53
2019-04-03T17:02:18.888Z,96084.94
2019-04-03T17:04:45.749Z,96071.81
2019-04-03T17:07:12.154Z,96069.08
2019-04-03T17:09:39.429Z,96083.79
2019-04-03T17:12:06.145Z,96073.42
2019-04-03T17:14:33.094Z,96079.30
2019-04-03T17:16:59.562Z,96073.05
2019-04-03T17:19:26.121Z,96080.49
2019-04-03T17:21:52.707Z,96080.11
2019-04-03T17:31:48.374Z,96087.52
2019-04-03T17:34:14.843Z,96091.98
2019-04-03T17:36:41.950Z,96093.55
2019-04-03T17:39:08.858Z,96097.84
2019-04-03T17:41:36.111Z,96105.47
2019-04-03T17:44:04.360Z,96102.88
2019-04-03T17:46:30.656Z,96105.42
2019-04-03T17:48:57.127Z,96109.72
2019-04-03T17:51:23.499Z,96116.91
2019-04-03T17:53:50.132Z,96113.39
2019-04-03T17:56:16.416Z,96122.95
2019-04-03T17:58:42.828Z,96118.06
2019-04-03T18:01:09.245Z,96123.50
2019-04-03T18:03:35.818Z,96122.52
2019-04-03T18:06:03.261Z,96127.75
2019-04-03T18:08:32.504Z,96124.03
2019-04-03T18:10:57.924Z,96129.09
2019-04-03T18:13:24.268Z,96136.10
2019-04-03T18:15:50.664Z,96131.93
2019-04-03T18:18:17.680Z,96136.17
2019-04-03T18:20:44.730Z,96139.45
2019-04-03T18:23:12.377Z,96141.55
2019-04-03T18:25:38.689Z,96142.30
2019-04-03T18:28:05.561Z,96148.14
2019-04-03T18:30:32.391Z,96149.88
2019-04-03T18:32:58.984Z,96148.05
2019-04-03T18:35:26.279Z,96145.52
2019-04-03T18:37:52.889Z,96153.27
2019-04-03T18:40:19.754Z,96153.41
2019-04-03T18:42:49.355Z,96155.14
2019-04-03T18:45:25.031Z,96151.98
2019-04-03T18:47:46.083Z,96150.73
2019-04-03T18:50:12.726Z,96151.30
2019-04-03T18:52:39.496Z,96155.93
2019-04-03T18:55:06.606Z,96150.24
2019-04-03T18:57:33.397Z,96152.93
2019-04-03T19:00:00.688Z,96154.86
2019-04-03T19:02:27.323Z,96156.00
2019-04-03T19:05:01.920Z,96150.64
2019-04-03T19:07:22.135Z,96145.91
2019-04-03T19:09:49.915Z,96147.98
2019-04-03T19:12:16.987Z,96153.80
2019-04-03T19:14:43.371Z,96160.36
2019-04-03T19:17:10.076Z,96152.36
2019-04-03T19:19:36.364Z,96151.15
2019-04-03T19:22:03.094Z,96155.59
2019-04-03T19:24:29.595Z,96153.14
2019-04-03T19:26:55.891Z,96149.60
2019-04-03T19:29:22.302Z,96158.67
2019-04-03T19:31:48.744Z,96153.20
2019-04-03T19:34:19.624Z,96148.52
2019-04-03T19:36:43.811Z,96149.47
2019-04-03T19:39:10.224Z,96151.20
2019-04-03T19:41:36.612Z,96154.50
2019-04-03T19:44:03.576Z,96153.92
2019-04-03T19:46:30.183Z,96149.83
2019-04-03T19:48:57.345Z,96150.41
2019-04-03T19:51:23.863Z,96150.98
2019-04-03T19:53:59.051Z,96147.89
2019-04-03T19:56:18.735Z,96146.89
2019-04-03T19:58:45.422Z,96146.30
2019-04-03T20:01:11.997Z,96143.14
2019-04-03T20:03:38.788Z,96143.87
2019-04-03T20:06:05.375Z,96138.23
2019-04-03T20:08:32.028Z,96140.33
2019-04-03T20:10:58.524Z,96135.39
2019-04-03T20:13:27.856Z,96139.40
2019-04-03T20:15:54.530Z,96136.16
2019-04-03T20:18:21.191Z,96136.46
2019-04-03T20:20:47.548Z,96138.31
2019-04-03T20:23:13.938Z,96129.83
2019-04-03T20:25:40.338Z,96135.36
2019-04-03T20:28:06.918Z,96134.90
2019-04-03T20:30:33.792Z,96137.37
2019-04-03T20:33:00.412Z,96141.77
2019-04-03T20:35:27.102Z,96139.79
2019-04-03T20:37:56.774Z,96121.44
2019-04-03T20:40:21.976Z,96144.37
2019-04-03T20:42:48.429Z,96147.11
2019-04-03T20:45:15.043Z,96123.95
2019-04-03T20:47:41.686Z,96140.52
2019-04-03T20:50:09.039Z,96138.82
2019-04-03T20:52:35.603Z,96139.46
2019-04-03T20:55:03.917Z,96142.83
2019-04-03T20:57:31.088Z,96137.63
2019-04-03T21:00:02.962Z,96136.33
2019-04-03T21:02:27.036Z,96135.21
2019-04-03T21:04:53.711Z,96133.91
2019-04-03T21:07:20.140Z,96133.73
2019-04-03T21:09:46.747Z,96124.61
2019-04-03T21:12:13.620Z,96133.83
2019-04-03T21:14:41.515Z,96137.77
2019-04-03T21:17:08.351Z,96135.25
2019-04-03T21:19:34.746Z,96131.98
2019-04-03T21:22:01.175Z,96126.80
2019-04-03T21:24:27.570Z,96121.16
2019-04-03T21:26:53.965Z,96128.19
2019-04-03T21:29:20.422Z,96126.83
2019-04-03T21:31:46.907Z,96128.61
2019-04-03T21:34:13.518Z,96124.16
2019-04-03T21:36:39.835Z,96124.16
2019-04-03T21:39:06.768Z,96116.97
2019-04-03T21:41:33.409Z,96126.52
2019-04-03T21:44:00.511Z,96130.77
2019-04-03T21:46:27.271Z,96125.46
2019-04-03T21:48:53.747Z,96128.77
2019-04-03T21:51:20.801Z,96130.13
2019-04-03T21:53:47.774Z,96131.70
2019-04-03T21:56:14.327Z,96128.40
2019-04-03T21:58:40.649Z,96127.40
2019-04-03T22:01:17.913Z,96127.40
2019-04-03T22:03:45.151Z,96127.38
2019-04-03T22:06:11.917Z,96132.19
2019-04-03T22:08:38.572Z,96130.43
2019-04-03T22:11:05.502Z,96123.98
2019-04-03T22:13:32.042Z,96094.20
2019-04-03T22:15:58.634Z,96094.20
2019-04-03T22:18:25.073Z,96112.16
2019-04-03T22:20:51.590Z,96117.61
2019-04-03T22:23:18.304Z,96111.74
2019-04-03T22:25:44.787Z,96078.03
2019-04-03T22:28:13.207Z,96102.11
2019-04-03T22:30:39.603Z,96105.98
2019-04-03T22:33:06.028Z,96098.78
2019-04-03T22:35:32.776Z,96117.47
2019-04-03T22:37:59.306Z,96106.74
2019-04-03T22:40:25.825Z,96107.31
2019-04-03T22:42:59.736Z,96117.22
2019-04-03T22:45:26.181Z,96117.59
2019-04-03T22:47:54.290Z,96119.09
2019-04-03T22:50:20.911Z,96115.02
2019-04-03T22:52:47.470Z,96098.84
2019-04-03T22:55:14.809Z,96107.89
2019-04-03T22:57:41.943Z,96102.59
2019-04-03T23:00:08.526Z,96112.50
2019-04-03T23:02:35.293Z,96113.86
2019-04-03T23:05:01.913Z,96104.20
2019-04-03T23:07:29.082Z,96113.62
2019-04-03T23:09:56.744Z,96108.53
2019-04-03T23:12:24.393Z,96105.16
2019-04-03T23:14:51.606Z,96107.95
2019-04-03T23:17:18.376Z,96106.59
2019-04-03T23:19:44.895Z,96096.56
2019-04-03T23:22:11.634Z,96096.56
2019-04-03T23:24:38.419Z,96100.63
2019-04-03T23:27:05.273Z,96100.63
2019-04-03T23:29:32.040Z,96092.34
2019-04-03T23:31:59.073Z,96088.86
2019-04-03T23:34:25.951Z,96080.52
2019-04-03T23:36:54.282Z,96072.92
2019-04-03T23:39:21.676Z,96072.49
2019-04-03T23:41:48.631Z,96067.98
2019-04-03T23:44:15.414Z,96067.95
2019-04-03T23:46:45.290Z,96069.47
2019-04-03T23:49:10.942Z,96063.02
2019-04-03T23:51:37.864Z,96056.02
2019-04-03T23:54:04.726Z,96060.12
2019-04-03T23:56:31.583Z,96057.75
2019-04-03T23:58:58.579Z,96053.24
